Time;durP1;ratioP1;P1;durP2;ratioP2;P2;SDS_P1;SDS_P2;PMS_P1;PMS_P2;Temp;Humidity;BMP_temperature;BMP_pressure;BME280_temperature;BME280_humidity;BME280_pressure;Samples;Min_cycle;Max_cycle;Signal;HPM_P1;HPM_P2
2022/10/06 00:00:37;;;;;;;;;3.00;3.00;27.40;99.90;;;;;;5002855;28;8833;-68
2022/10/06 00:03:09;;;;;;;;;3.75;3.75;27.40;99.90;;;;;;4997220;28;8840;-61
2022/10/06 00:05:40;;;;;;;;;3.50;3.50;27.30;99.90;;;;;;5003131;28;8868;-60
2022/10/06 00:08:13;;;;;;;;;3.00;3.00;27.20;99.90;;;;;;5002950;28;8864;-60
2022/10/06 00:10:45;;;;;;;;;3.00;3.00;27.10;99.90;;;;;;5000516;28;8871;-61
2022/10/06 00:13:17;;;;;;;;;2.40;2.40;27.00;99.90;;;;;;4999079;28;9588;-66
2022/10/06 00:15:49;;;;;;;;;3.25;2.50;27.00;99.90;;;;;;4998007;28;8852;-67
2022/10/06 00:18:21;;;;;;;;;4.00;4.00;27.00;99.90;;;;;;4996287;28;8875;-57
2022/10/06 00:21:03;;;;;;;;;3.80;3.80;26.90;99.90;;;;;;4991820;28;8863;-58
2022/10/06 00:23:34;;;;;;;;;3.00;3.00;26.90;99.90;;;;;;4998628;28;8869;-56
2022/10/06 00:26:05;;;;;;;;;3.00;3.00;26.80;99.90;;;;;;4994995;28;8877;-56
2022/10/06 00:28:35;;;;;;;;;2.80;2.80;26.70;99.90;;;;;;5000021;28;8856;-58
2022/10/06 00:31:07;;;;;;;;;4.40;3.80;26.60;99.90;;;;;;5002206;28;8833;-56
2022/10/06 00:33:44;;;;;;;;;3.00;3.00;26.60;99.90;;;;;;4985552;28;8847;-56
2022/10/06 00:36:15;;;;;;;;;3.00;3.00;26.50;99.90;;;;;;4982718;28;8864;-55
2022/10/06 00:38:49;;;;;;;;;4.00;4.00;26.40;99.90;;;;;;4998093;28;9018;-55
2022/10/06 00:41:20;;;;;;;;;4.25;4.00;26.30;99.90;;;;;;4993623;28;8876;-59
2022/10/06 00:43:53;;;;;;;;;4.25;4.25;26.30;99.90;;;;;;4998082;28;8861;-59
2022/10/06 00:46:40;;;;;;;;;4.75;4.00;26.30;99.90;;;;;;5002454;28;8837;-56
2022/10/06 00:49:16;;;;;;;;;5.25;5.25;26.20;99.90;;;;;;4999872;28;8862;-61
2022/10/06 00:52:04;;;;;;;;;3.00;3.00;26.10;99.90;;;;;;5000956;28;8852;-60
2022/10/06 00:54:35;;;;;;;;;4.50;4.50;26.10;99.90;;;;;;5014138;28;8852;-57
2022/10/06 00:57:06;;;;;;;;;3.50;3.50;26.10;99.90;;;;;;4999423;28;8865;-56
2022/10/06 00:59:41;;;;;;;;;4.25;4.25;26.00;99.90;;;;;;4997139;28;8861;-57
2022/10/06 01:02:40;;;;;;;;;3.25;3.25;25.90;99.90;;;;;;4994071;28;8862;-58
2022/10/06 01:05:17;;;;;;;;;3.50;3.50;26.00;99.90;;;;;;4994654;28;8878;-58
2022/10/06 01:07:48;;;;;;;;;4.00;4.00;25.90;99.90;;;;;;5000966;28;8876;-58
2022/10/06 01:10:18;;;;;;;;;5.50;5.00;25.90;99.90;;;;;;5007245;28;8848;-58
2022/10/06 01:12:54;;;;;;;;;4.25;4.25;25.90;99.90;;;;;;4993757;28;8856;-61
2022/10/06 01:15:27;;;;;;;;;5.50;4.00;25.90;99.90;;;;;;5006131;28;8865;-59
2022/10/06 01:18:08;;;;;;;;;4.00;4.00;25.80;99.90;;;;;;4997613;28;8844;-58
2022/10/06 01:20:52;;;;;;;;;4.00;4.00;25.70;99.90;;;;;;4993395;28;9627;-61
2022/10/06 01:23:24;;;;;;;;;4.00;4.00;25.70;99.90;;;;;;4999630;28;8837;-58
2022/10/06 01:25:57;;;;;;;;;3.50;3.50;25.60;99.90;;;;;;5000273;28;8865;-58
2022/10/06 01:28:31;;;;;;;;;4.00;4.00;25.60;99.90;;;;;;5030815;23;8926;-75
2022/10/06 01:31:05;;;;;;;;;4.25;4.25;25.50;99.90;;;;;;5005703;28;8907;-75
2022/10/06 01:33:40;;;;;;;;;5.00;5.00;25.50;99.90;;;;;;5003487;28;8887;-79
2022/10/06 01:36:12;;;;;;;;;4.00;4.00;25.40;99.90;;;;;;5001339;23;8892;-60
2022/10/06 01:38:45;;;;;;;;;5.00;5.00;25.40;99.90;;;;;;4994321;28;8852;-59
2022/10/06 01:41:15;;;;;;;;;3.00;3.00;25.40;99.90;;;;;;4997533;28;8852;-59
2022/10/06 01:43:49;;;;;;;;;3.00;3.00;25.40;99.90;;;;;;4994848;28;8867;-61
2022/10/06 01:46:20;;;;;;;;;4.00;4.00;25.40;99.90;;;;;;4993084;28;8884;-58
2022/10/06 01:48:53;;;;;;;;;3.00;3.00;25.30;99.90;;;;;;4999048;28;8921;-60
2022/10/06 01:51:27;;;;;;;;;4.00;4.00;25.30;99.90;;;;;;4995054;28;8852;-59
2022/10/06 01:54:03;;;;;;;;;4.25;4.25;25.20;99.90;;;;;;4992806;28;8928;-60
2022/10/06 01:56:34;;;;;;;;;4.00;4.00;25.00;99.90;;;;;;5004108;28;8872;-58
2022/10/06 01:59:07;;;;;;;;;5.50;5.50;24.90;99.90;;;;;;4995976;28;8883;-67
2022/10/06 02:01:38;;;;;;;;;4.50;4.50;24.80;99.90;;;;;;4984000;28;8863;-60
2022/10/06 02:04:08;;;;;;;;;4.00;4.00;24.80;99.90;;;;;;4995153;28;8850;-56
2022/10/06 02:06:40;;;;;;;;;4.00;4.00;24.60;99.90;;;;;;4979260;28;8876;-59
2022/10/06 02:09:13;;;;;;;;;4.00;4.00;24.40;99.90;;;;;;4990399;28;8927;-61
2022/10/06 02:11:45;;;;;;;;;5.25;4.25;24.30;99.90;;;;;;4989170;28;8876;-57
2022/10/06 02:14:16;;;;;;;;;5.00;5.00;24.20;99.90;;;;;;4990546;28;8899;-61
2022/10/06 02:16:49;;;;;;;;;5.00;5.00;24.10;99.90;;;;;;4975315;28;8868;-58
2022/10/06 02:19:23;;;;;;;;;4.75;4.75;24.00;99.90;;;;;;4989349;28;8872;-60
2022/10/06 02:21:54;;;;;;;;;4.50;4.50;24.00;99.90;;;;;;4998045;28;8852;-61
2022/10/06 02:24:25;;;;;;;;;2.75;2.75;24.00;99.90;;;;;;5009191;28;8885;-62
2022/10/06 02:26:57;;;;;;;;;4.00;4.00;23.90;99.90;;;;;;4994759;28;8840;-56
2022/10/06 02:29:27;;;;;;;;;4.25;4.25;23.90;99.90;;;;;;4979137;28;8875;-59
2022/10/06 02:31:58;;;;;;;;;5.00;5.00;23.80;99.90;;;;;;4997691;28;8837;-59
2022/10/06 02:34:33;;;;;;;;;5.25;5.25;23.80;99.90;;;;;;4998245;28;8909;-56
2022/10/06 02:37:07;;;;;;;;;4.50;4.50;23.80;99.90;;;;;;4997442;28;8848;-56
2022/10/06 02:39:39;;;;;;;;;6.25;6.25;23.80;99.90;;;;;;4998044;28;9601;-58
2022/10/06 02:42:11;;;;;;;;;9.00;9.00;23.70;99.90;;;;;;4998671;28;8851;-60
2022/10/06 02:44:42;;;;;;;;;9.00;9.00;23.70;99.90;;;;;;4997240;28;8851;-60
2022/10/06 02:47:13;;;;;;;;;9.00;9.00;23.70;99.90;;;;;;4994357;28;8860;-59
2022/10/06 02:49:45;;;;;;;;;8.25;8.25;23.70;99.90;;;;;;4996904;28;8851;-59
2022/10/06 02:52:17;;;;;;;;;7.25;7.25;23.60;99.90;;;;;;4991773;28;8834;-58
2022/10/06 02:54:50;;;;;;;;;8.00;8.00;23.50;99.90;;;;;;4992391;28;8902;-56
2022/10/06 02:57:21;;;;;;;;;7.25;7.25;23.50;99.90;;;;;;4991294;28;8878;-57
2022/10/06 02:59:53;;;;;;;;;7.75;7.00;23.50;99.90;;;;;;5008724;28;9620;-57
2022/10/06 03:02:25;;;;;;;;;6.00;6.00;23.30;99.90;;;;;;4994232;28;8867;-56
2022/10/06 03:04:56;;;;;;;;;6.00;6.00;23.30;99.90;;;;;;4997925;28;8837;-60
2022/10/06 03:07:28;;;;;;;;;7.25;7.25;23.30;99.90;;;;;;4996295;28;8864;-60
2022/10/06 03:09:59;;;;;;;;;6.25;5.50;23.30;99.90;;;;;;4990236;28;8891;-60
2022/10/06 03:12:30;;;;;;;;;7.25;6.50;23.40;99.90;;;;;;4983329;28;8871;-60
2022/10/06 03:15:01;;;;;;;;;5.75;5.75;23.40;99.90;;;;;;5010310;28;8875;-57
2022/10/06 03:17:32;;;;;;;;;7.00;7.00;23.50;99.90;;;;;;4994353;28;8871;-55
2022/10/06 03:20:03;;;;;;;;;5.00;5.00;23.50;99.90;;;;;;4996385;28;8872;-58
2022/10/06 03:22:35;;;;;;;;;6.50;6.50;23.30;99.90;;;;;;5021578;28;8886;-56
2022/10/06 03:25:08;;;;;;;;;5.00;5.00;23.30;99.90;;;;;;4995708;28;8844;-60
2022/10/06 03:27:40;;;;;;;;;6.00;6.00;23.20;99.90;;;;;;4997519;28;8848;-60
2022/10/06 03:30:11;;;;;;;;;4.50;4.50;23.20;99.90;;;;;;4994771;28;8925;-58
2022/10/06 03:32:41;;;;;;;;;5.00;5.00;23.10;99.90;;;;;;4986298;28;8878;-59
2022/10/06 03:35:12;;;;;;;;;5.50;5.50;23.10;99.90;;;;;;4994605;28;8868;-56
2022/10/06 03:37:43;;;;;;;;;5.25;5.25;23.10;99.90;;;;;;4991388;28;8864;-56
2022/10/06 03:40:14;;;;;;;;;5.50;5.50;23.00;99.90;;;;;;4989724;28;8906;-58
2022/10/06 03:42:48;;;;;;;;;5.00;5.00;22.90;99.90;;;;;;4993600;28;8903;-59
2022/10/06 03:45:20;;;;;;;;;5.00;5.00;22.90;99.90;;;;;;4991907;28;8895;-57
2022/10/06 03:47:54;;;;;;;;;6.00;6.00;22.90;99.90;;;;;;4993437;28;8902;-57
2022/10/06 03:50:28;;;;;;;;;5.50;5.50;22.90;99.90;;;;;;4994840;28;8860;-56
2022/10/06 03:53:04;;;;;;;;;5.00;5.00;22.90;99.90;;;;;;5018306;28;8844;-57
2022/10/06 03:55:37;;;;;;;;;5.25;5.25;22.80;99.90;;;;;;4992498;28;9006;-56
2022/10/06 03:58:08;;;;;;;;;7.50;6.00;22.80;99.90;;;;;;4995016;28;8872;-56
2022/10/06 04:00:40;;;;;;;;;5.00;5.00;22.70;99.90;;;;;;5019466;28;8890;-55
2022/10/06 04:03:17;;;;;;;;;6.50;5.00;22.70;99.90;;;;;;4977494;28;8865;-60
2022/10/06 04:05:57;;;;;;;;;4.00;4.00;22.60;99.90;;;;;;4998201;28;8860;-59
2022/10/06 04:08:31;;;;;;;;;5.25;5.25;22.60;99.90;;;;;;4994430;28;8895;-64
2022/10/06 04:11:12;;;;;;;;;4.00;4.00;22.50;99.90;;;;;;4996011;28;8858;-59
2022/10/06 04:13:43;;;;;;;;;6.00;6.00;22.50;99.90;;;;;;5012238;28;8856;-60
2022/10/06 04:16:16;;;;;;;;;6.00;6.00;22.40;99.90;;;;;;4998418;28;8878;-59
2022/10/06 04:18:53;;;;;;;;;5.75;5.75;22.40;99.90;;;;;;4997051;28;8860;-56
2022/10/06 04:21:29;;;;;;;;;3.00;3.00;22.40;99.90;;;;;;4994173;28;8850;-55
2022/10/06 04:24:00;;;;;;;;;5.00;5.00;22.30;99.90;;;;;;4993993;28;8859;-60
2022/10/06 04:26:34;;;;;;;;;5.25;5.25;22.40;99.90;;;;;;4996657;28;8828;-60
2022/10/06 04:29:06;;;;;;;;;6.00;6.00;22.30;99.90;;;;;;4997384;28;8875;-56
2022/10/06 04:31:41;;;;;;;;;6.50;6.50;22.30;99.90;;;;;;4994477;28;8848;-56
2022/10/06 04:34:19;;;;;;;;;5.25;5.25;22.20;99.90;;;;;;5002733;28;8825;-57
2022/10/06 04:36:53;;;;;;;;;7.50;7.50;22.30;99.90;;;;;;4994811;28;8898;-55
2022/10/06 04:39:26;;;;;;;;;5.25;5.25;22.20;99.90;;;;;;4995373;28;8840;-58
2022/10/06 04:42:02;;;;;;;;;5.25;4.75;22.20;99.90;;;;;;4993375;28;8859;-56
2022/10/06 04:44:33;;;;;;;;;6.00;6.00;22.10;99.90;;;;;;4993864;28;9684;-60
2022/10/06 04:47:05;;;;;;;;;5.25;5.25;22.10;99.90;;;;;;4995653;28;8876;-60
2022/10/06 04:49:35;;;;;;;;;8.00;7.00;22.00;99.90;;;;;;4993736;28;8864;-60
2022/10/06 04:52:06;;;;;;;;;5.75;5.75;22.00;99.90;;;;;;4976730;28;8925;-60
2022/10/06 04:54:41;;;;;;;;;6.25;6.25;22.00;99.90;;;;;;4977309;28;8876;-60
2022/10/06 04:57:17;;;;;;;;;6.00;6.00;21.90;99.90;;;;;;4996361;28;9635;-60
2022/10/06 05:02:45;;;;;;;;;6.75;6.75;21.80;99.90;;;;;;4996173;28;8876;-56
2022/10/06 05:05:19;;;;;;;;;7.00;7.00;21.80;99.90;;;;;;5001471;28;8894;-56
2022/10/06 05:07:52;;;;;;;;;5.25;5.25;21.80;99.90;;;;;;4992791;28;8836;-55
2022/10/06 05:10:26;;;;;;;;;6.50;5.25;21.80;99.90;;;;;;4976048;28;8878;-57
2022/10/06 05:12:56;;;;;;;;;7.00;6.25;21.80;99.90;;;;;;4989357;28;8868;-57
2022/10/06 05:15:28;;;;;;;;;6.75;6.75;21.80;99.90;;;;;;4992256;28;8845;-59
2022/10/06 05:17:59;;;;;;;;;7.00;7.00;21.80;99.90;;;;;;4991417;28;8852;-60
2022/10/06 05:20:30;;;;;;;;;9.00;8.00;21.80;99.90;;;;;;4991532;28;8904;-58
2022/10/06 05:23:07;;;;;;;;;6.25;6.25;21.70;99.90;;;;;;4988886;28;8864;-56
2022/10/06 05:25:37;;;;;;;;;6.00;6.00;21.70;99.90;;;;;;4978839;28;8880;-57
2022/10/06 05:28:11;;;;;;;;;8.00;8.00;21.50;99.90;;;;;;4991946;28;8833;-59
2022/10/06 05:30:41;;;;;;;;;3.25;3.25;21.60;99.90;;;;;;4998687;28;9017;-60
2022/10/06 05:33:11;;;;;;;;;8.00;8.00;21.50;99.90;;;;;;4997132;28;8859;-60
2022/10/06 05:35:51;;;;;;;;;6.50;6.50;21.40;99.90;;;;;;4998067;28;8870;-56
2022/10/06 05:38:22;;;;;;;;;5.50;5.50;21.50;99.90;;;;;;5016709;28;8858;-60
2022/10/06 05:41:28;;;;;;;;;7.25;7.25;21.40;99.90;;;;;;4996475;28;8894;-60
2022/10/06 05:44:00;;;;;;;;;4.00;4.00;21.30;99.90;;;;;;4987463;28;8866;-57
2022/10/06 05:46:32;;;;;;;;;9.00;7.75;21.20;99.90;;;;;;4990955;28;8857;-56
2022/10/06 05:49:09;;;;;;;;;5.50;5.50;21.20;99.90;;;;;;4992985;28;8841;-60
2022/10/06 05:51:59;;;;;;;;;7.50;7.50;21.10;99.90;;;;;;4992260;28;8860;-60
2022/10/06 05:54:34;;;;;;;;;7.75;7.25;21.10;99.90;;;;;;4997834;28;8891;-60
2022/10/06 05:57:07;;;;;;;;;7.50;7.50;21.10;99.90;;;;;;5005949;28;8844;-60
2022/10/06 05:59:39;;;;;;;;;6.75;6.75;21.00;99.90;;;;;;5001689;28;9555;-56
2022/10/06 06:02:11;;;;;;;;;7.75;7.75;21.00;99.90;;;;;;5000222;28;8955;-57
2022/10/06 06:04:45;;;;;;;;;7.75;7.75;20.90;99.90;;;;;;4984237;28;9002;-54
2022/10/06 06:07:17;;;;;;;;;9.00;9.00;21.00;99.90;;;;;;4996602;28;9602;-56
2022/10/06 06:09:50;;;;;;;;;3.50;3.50;21.00;99.90;;;;;;4998252;28;8868;-60
2022/10/06 06:12:19;;;;;;;;;7.75;7.75;20.90;99.90;;;;;;5012235;28;8876;-59
2022/10/06 06:17:48;;;;;;;;;7.00;5.50;20.90;99.90;;;;;;4995669;28;9733;-59
2022/10/06 06:20:21;;;;;;;;;9.75;9.75;20.80;99.90;;;;;;4997056;28;8851;-59
2022/10/06 06:22:57;;;;;;;;;8.00;8.00;20.80;99.90;;;;;;4994377;28;8876;-59
2022/10/06 06:25:29;;;;;;;;;5.25;5.25;20.90;99.90;;;;;;4997317;28;8843;-59
2022/10/06 06:28:00;;;;;;;;;8.00;7.00;20.90;99.90;;;;;;5001020;28;8906;-59
2022/10/06 06:30:32;;;;;;;;;9.00;9.00;20.90;99.90;;;;;;5004969;28;9029;-56
2022/10/06 06:33:04;;;;;;;;;10.00;8.25;20.80;99.90;;;;;;5001170;28;8870;-58
2022/10/06 06:35:36;;;;;;;;;8.25;8.25;20.70;99.90;;;;;;4999214;28;8909;-59
2022/10/06 06:38:10;;;;;;;;;9.25;8.00;20.60;99.90;;;;;;4998210;28;8882;-61
2022/10/06 06:40:44;;;;;;;;;8.25;8.25;20.50;99.90;;;;;;4996067;28;8899;-58
2022/10/06 06:43:16;;;;;;;;;8.00;8.00;20.50;99.90;;;;;;5024310;28;8845;-60
2022/10/06 06:46:15;;;;;;;;;7.50;7.50;20.50;99.90;;;;;;4988680;28;8848;-60
2022/10/06 06:49:03;;;;;;;;;6.00;6.00;20.40;99.90;;;;;;4997684;28;8855;-58
2022/10/06 06:51:49;;;;;;;;;7.00;7.00;20.40;99.90;;;;;;5001976;28;8886;-56
2022/10/06 06:54:26;;;;;;;;;6.25;6.25;20.40;99.90;;;;;;5000654;28;8892;-55
2022/10/06 06:57:06;;;;;;;;;7.50;7.50;20.40;99.90;;;;;;4997010;28;9611;-58
2022/10/06 06:59:37;;;;;;;;;8.75;8.75;20.50;99.90;;;;;;4999880;28;8863;-59
2022/10/06 07:02:12;;;;;;;;;9.25;9.25;20.60;99.90;;;;;;5000967;28;8882;-58
2022/10/06 07:04:45;;;;;;;;;8.25;8.25;20.60;99.90;;;;;;5009438;28;8882;-60
2022/10/06 07:07:20;;;;;;;;;8.25;8.25;20.60;99.90;;;;;;5000128;28;9613;-60
2022/10/06 07:09:54;;;;;;;;;9.25;9.25;20.50;99.90;;;;;;4996690;28;8893;-56
2022/10/06 07:12:29;;;;;;;;;5.25;5.25;20.50;99.90;;;;;;4998915;28;8859;-57
2022/10/06 07:26:23;;;;;;;;;9.00;9.00;20.50;99.90;;;;;;5009662;28;8852;-59
2022/10/06 07:29:00;;;;;;;;;9.00;9.00;20.60;99.90;;;;;;5008467;28;8872;-60
2022/10/06 07:31:32;;;;;;;;;9.00;9.00;20.70;99.90;;;;;;4995461;28;10725;-59
2022/10/06 07:34:05;;;;;;;;;9.25;9.25;20.70;99.90;;;;;;4999196;28;8840;-59
2022/10/06 07:36:37;;;;;;;;;9.00;9.00;20.80;99.90;;;;;;4999131;28;8856;-59
2022/10/06 07:39:09;;;;;;;;;8.25;8.25;20.70;99.90;;;;;;4993678;28;8866;-55
2022/10/06 07:41:41;;;;;;;;;7.25;7.25;20.80;99.90;;;;;;4998325;28;9688;-57
2022/10/06 07:44:15;;;;;;;;;5.25;5.25;20.80;99.90;;;;;;4994459;28;8840;-56
2022/10/06 07:46:51;;;;;;;;;8.00;8.00;20.80;99.90;;;;;;4992070;28;8867;-55
2022/10/06 07:49:33;;;;;;;;;8.00;8.00;20.70;99.90;;;;;;5007187;28;8853;-61
2022/10/06 07:52:04;;;;;;;;;8.00;8.00;20.70;99.90;;;;;;4997905;28;8860;-60
2022/10/06 07:54:35;;;;;;;;;8.00;8.00;20.70;99.90;;;;;;4999292;28;8851;-60
2022/10/06 07:57:36;;;;;;;;;8.00;8.00;20.70;99.90;;;;;;5013148;28;8842;-61
2022/10/06 08:00:08;;;;;;;;;6.00;6.00;20.60;99.90;;;;;;4994932;28;8870;-59
2022/10/06 08:02:41;;;;;;;;;6.00;6.00;20.60;99.90;;;;;;4995386;28;8933;-62
2022/10/06 08:05:11;;;;;;;;;7.75;7.00;20.60;99.90;;;;;;4995047;28;8847;-64
2022/10/06 08:07:41;;;;;;;;;8.75;7.75;20.50;99.90;;;;;;4997072;28;8844;-59
2022/10/06 08:10:11;;;;;;;;;8.75;8.75;20.60;99.90;;;;;;4996606;28;8879;-55
2022/10/06 08:12:43;;;;;;;;;8.00;8.00;20.60;99.90;;;;;;4993729;28;8856;-57
2022/10/06 08:15:19;;;;;;;;;7.00;7.00;20.50;99.90;;;;;;4991798;28;8858;-58
2022/10/06 08:17:52;;;;;;;;;7.75;7.75;20.40;99.90;;;;;;4995389;28;10033;-56
2022/10/06 08:20:26;;;;;;;;;8.25;8.25;20.30;99.90;;;;;;5015277;28;8844;-59
2022/10/06 08:22:58;;;;;;;;;8.25;8.25;20.30;99.90;;;;;;4993896;28;8847;-60
2022/10/06 08:25:29;;;;;;;;;7.50;7.50;20.20;99.90;;;;;;4990017;28;8870;-60
2022/10/06 08:28:01;;;;;;;;;7.00;7.00;20.20;99.90;;;;;;4993194;28;8867;-60
2022/10/06 08:30:35;;;;;;;;;6.25;6.25;20.20;99.90;;;;;;5024616;28;8841;-55
2022/10/06 08:33:06;;;;;;;;;8.00;8.00;20.20;99.90;;;;;;4993967;28;8868;-56
2022/10/06 08:35:36;;;;;;;;;8.00;8.00;20.20;99.90;;;;;;4989590;28;8867;-56
2022/10/06 08:38:06;;;;;;;;;7.00;7.00;20.20;99.90;;;;;;4993707;28;8984;-60
2022/10/06 08:40:35;;;;;;;;;6.00;6.00;20.20;99.90;;;;;;4985714;28;8844;-59
2022/10/06 08:43:16;;;;;;;;;8.00;8.00;20.20;99.90;;;;;;4994667;28;8840;-60
2022/10/06 08:45:56;;;;;;;;;7.75;7.75;20.20;99.90;;;;;;4998061;28;8860;-61
2022/10/06 08:48:37;;;;;;;;;8.50;8.50;20.10;99.90;;;;;;4995231;28;8831;-61
2022/10/06 08:51:14;;;;;;;;;6.25;6.25;20.10;99.90;;;;;;4974424;28;8887;-59
2022/10/06 08:54:32;;;;;;;;;6.00;6.00;20.10;99.90;;;;;;4994651;28;8870;-60
2022/10/06 08:57:40;;;;;;;;;7.00;7.00;20.00;99.90;;;;;;4956129;28;8940;-60
2022/10/06 09:00:14;;;;;;;;;6.00;6.00;19.90;99.90;;;;;;4934276;28;8910;-60
2022/10/06 09:02:50;;;;;;;;;7.00;7.00;19.90;99.90;;;;;;4963794;28;8871;-59
2022/10/06 09:05:26;;;;;;;;;7.00;7.00;19.80;99.90;;;;;;4996330;28;8974;-56
2022/10/06 09:08:09;;;;;;;;;8.00;8.00;19.80;99.90;;;;;;4994361;28;8870;-57
2022/10/06 09:11:01;;;;;;;;;8.00;8.00;19.90;99.90;;;;;;4992075;28;9145;-57
2022/10/06 09:13:41;;;;;;;;;7.00;7.00;19.90;99.90;;;;;;4997187;28;8893;-56
2022/10/06 09:16:18;;;;;;;;;8.00;8.00;19.70;99.90;;;;;;4995740;28;8844;-55
2022/10/06 09:18:56;;;;;;;;;6.67;6.67;19.70;99.90;;;;;;4995501;28;8954;-54
2022/10/06 09:21:49;;;;;;;;;6.67;6.67;19.70;99.90;;;;;;4998069;28;9022;-59
2022/10/06 09:24:31;;;;;;;;;7.67;7.67;19.70;99.90;;;;;;4994740;28;9076;-59
2022/10/06 09:27:22;;;;;;;;;8.33;8.33;19.60;99.90;;;;;;4994774;28;8943;-64
2022/10/06 09:29:55;;;;;;;;;7.67;7.67;19.70;99.90;;;;;;4997488;28;8933;-59
2022/10/06 09:32:28;;;;;;;;;5.67;5.67;19.50;99.90;;;;;;4980385;28;9003;-55
2022/10/06 09:35:04;;;;;;;;;7.50;7.50;19.50;99.90;;;;;;4994426;28;8982;-54
2022/10/06 09:37:58;;;;;;;;;7.33;6.00;19.50;99.90;;;;;;5023657;28;8875;-55
2022/10/06 09:40:49;;;;;;;;;5.00;5.00;19.40;99.90;;;;;;4992063;28;8925;-54
2022/10/06 09:43:28;;;;;;;;;6.67;6.67;19.50;99.90;;;;;;4996249;28;8941;-60
2022/10/06 09:46:20;;;;;;;;;8.00;8.00;19.50;99.90;;;;;;4991270;28;8938;-55
2022/10/06 09:49:22;;;;;;;;;7.00;7.00;19.40;99.90;;;;;;4998167;28;8914;-60
2022/10/06 09:52:00;;;;;;;;;6.75;6.75;19.30;99.90;;;;;;4990707;28;8855;-60
2022/10/06 09:54:37;;;;;;;;;6.00;6.00;19.30;99.90;;;;;;4999031;28;8836;-57
2022/10/06 09:57:24;;;;;;;;;6.00;6.00;19.30;99.90;;;;;;4994501;28;10131;-55
2022/10/06 09:59:58;;;;;;;;;6.33;6.33;19.30;99.90;;;;;;4996777;28;8999;-60
2022/10/06 10:02:36;;;;;;;;;5.50;5.50;19.20;99.90;;;;;;4997199;28;9676;-61
2022/10/06 10:05:21;;;;;;;;;5.00;5.00;19.20;99.90;;;;;;4996091;28;8994;-61
2022/10/06 10:08:16;;;;;;;;;7.00;7.00;19.30;99.90;;;;;;4995437;28;9103;-62
2022/10/06 10:10:47;;;;;;;;;7.00;7.00;19.20;99.90;;;;;;4996082;28;9030;-60
2022/10/06 10:13:24;;;;;;;;;4.33;4.33;19.10;99.90;;;;;;4994156;28;8945;-56
2022/10/06 10:16:03;;;;;;;;;8.67;8.67;19.30;99.90;;;;;;4996541;28;9191;-58
2022/10/06 10:18:35;;;;;;;;;8.33;8.33;19.20;99.90;;;;;;4996491;28;9035;-60
2022/10/06 10:21:07;;;;;;;;;6.67;6.67;19.30;99.90;;;;;;4996589;28;9977;-60
2022/10/06 10:23:42;;;;;;;;;6.33;6.33;19.20;99.90;;;;;;4990621;28;8955;-59
2022/10/06 10:26:31;;;;;;;;;8.00;8.00;19.10;99.90;;;;;;4972232;28;8945;-62
2022/10/06 10:29:01;;;;;;;;;8.00;8.00;19.20;99.90;;;;;;4972641;28;8994;-58
2022/10/06 10:31:49;;;;;;;;;8.75;8.75;19.10;99.90;;;;;;4975077;28;8936;-53
2022/10/06 10:34:57;;;;;;;;;6.75;6.75;19.10;99.90;;;;;;4971870;28;9268;-55
2022/10/06 10:37:52;;;;;;;;;6.67;6.67;19.10;99.90;;;;;;4975973;28;8889;-57
2022/10/06 10:40:47;;;;;;;;;7.33;7.33;19.20;99.90;;;;;;4969610;28;8955;-59
2022/10/06 10:43:33;;;;;;;;;8.00;8.00;19.10;99.90;;;;;;4972312;28;9063;-61
2022/10/06 10:46:11;;;;;;;;;9.00;9.00;19.10;99.90;;;;;;4974476;28;8937;-61
2022/10/06 10:49:01;;;;;;;;;7.75;7.75;19.10;99.90;;;;;;4975418;28;8930;-60
2022/10/06 10:51:45;;;;;;;;;6.00;6.00;19.10;99.90;;;;;;4973505;28;8859;-61
2022/10/06 10:54:31;;;;;;;;;5.00;5.00;19.10;99.90;;;;;;4978540;28;8872;-60
2022/10/06 10:57:02;;;;;;;;;5.75;5.00;19.10;99.90;;;;;;4973424;28;9091;-60
2022/10/06 10:59:57;;;;;;;;;6.33;6.33;19.00;99.90;;;;;;4980564;28;8867;-57
2022/10/06 11:02:28;;;;;;;;;7.75;6.00;19.00;99.90;;;;;;4967671;28;8973;-56
2022/10/06 11:05:32;;;;;;;;;8.00;8.00;19.10;99.90;;;;;;4975676;28;8895;-56
2022/10/06 11:08:15;;;;;;;;;8.00;8.00;19.00;99.90;;;;;;4957838;28;8924;-59
2022/10/06 11:11:09;;;;;;;;;7.25;7.25;19.00;99.90;;;;;;4968572;28;10053;-56
2022/10/06 11:13:53;;;;;;;;;7.00;7.00;18.90;99.90;;;;;;4978525;28;8858;-60
2022/10/06 11:16:55;;;;;;;;;8.75;8.75;18.80;99.90;;;;;;4978302;28;8936;-60
2022/10/06 11:19:55;;;;;;;;;8.33;8.33;18.90;99.90;;;;;;4979149;28;8853;-60
2022/10/06 11:22:41;;;;;;;;;8.00;8.00;18.80;99.90;;;;;;4975337;28;9073;-63
2022/10/06 11:25:55;;;;;;;;;7.67;7.67;18.80;99.90;;;;;;4976757;28;8957;-59
2022/10/06 11:28:34;;;;;;;;;7.33;7.33;18.90;99.90;;;;;;5009476;28;8932;-58
2022/10/06 11:31:25;;;;;;;;;7.75;7.75;18.80;99.90;;;;;;5003870;28;8937;-60
2022/10/06 11:34:00;;;;;;;;;6.00;6.00;18.80;99.90;;;;;;4972834;28;8858;-56
2022/10/06 11:36:31;;;;;;;;;7.00;7.00;18.70;99.90;;;;;;4974663;28;9054;-56
2022/10/06 11:39:26;;;;;;;;;8.33;8.33;18.70;99.90;;;;;;4971647;28;9067;-58
2022/10/06 11:42:37;;;;;;;;;7.00;7.00;18.70;99.90;;;;;;4974723;28;9181;-56
2022/10/06 11:45:16;;;;;;;;;8.67;8.67;18.70;99.90;;;;;;4973464;28;9047;-60
2022/10/06 11:48:16;;;;;;;;;4.67;4.67;18.60;99.90;;;;;;4974611;28;9020;-57
2022/10/06 11:50:51;;;;;;;;;6.00;6.00;18.70;99.90;;;;;;4976995;28;9005;-59
2022/10/06 11:53:44;;;;;;;;;8.00;8.00;18.70;99.90;;;;;;4971298;28;9120;-60
2022/10/06 11:56:18;;;;;;;;;8.67;8.67;18.60;99.90;;;;;;4972731;28;9055;-60
2022/10/06 11:58:51;;;;;;;;;7.67;7.67;18.60;99.90;;;;;;4974049;28;9083;-61
2022/10/06 12:01:30;;;;;;;;;9.00;9.00;18.50;99.90;;;;;;4977671;28;9335;-60
2022/10/06 12:04:15;;;;;;;;;5.33;5.33;18.60;99.90;;;;;;4970101;28;9166;-58
2022/10/06 12:06:58;;;;;;;;;10.33;9.00;18.50;99.90;;;;;;5005400;28;9344;-57
2022/10/06 12:09:45;;;;;;;;;8.00;8.00;18.50;99.90;;;;;;4971632;28;8958;-59
2022/10/06 12:12:20;;;;;;;;;9.67;9.67;18.50;99.90;;;;;;4971471;28;9056;-62
2022/10/06 12:14:55;;;;;;;;;8.67;8.00;18.40;99.90;;;;;;4975454;28;9187;-57
2022/10/06 12:18:06;;;;;;;;;8.00;8.00;18.40;99.90;;;;;;4960578;28;9316;-58
2022/10/06 12:20:52;;;;;;;;;9.00;9.00;18.40;99.90;;;;;;4974451;28;9263;-60
2022/10/06 12:23:57;;;;;;;;;5.67;5.67;18.50;99.90;;;;;;4973496;28;9173;-57
2022/10/06 12:27:19;;;;;;;;;7.67;7.00;18.40;99.90;;;;;;4976633;28;9063;-57
2022/10/06 12:30:26;;;;;;;;;7.00;7.00;18.40;99.90;;;;;;4974530;28;9261;-58
2022/10/06 12:33:04;;;;;;;;;7.00;7.00;18.50;99.90;;;;;;4970354;28;9249;-58
2022/10/06 12:35:38;;;;;;;;;10.00;10.00;18.50;99.90;;;;;;4986293;28;9324;-57
2022/10/06 12:38:32;;;;;;;;;9.00;9.00;18.50;99.90;;;;;;4971916;28;9352;-57
2022/10/06 12:41:08;;;;;;;;;7.67;7.67;18.50;99.90;;;;;;4972551;28;9185;-56
2022/10/06 12:43:56;;;;;;;;;7.67;7.67;18.40;99.90;;;;;;4956798;28;9173;-59
2022/10/06 12:46:37;;;;;;;;;9.00;9.00;18.50;99.90;;;;;;4979332;28;9950;-58
2022/10/06 12:49:30;;;;;;;;;10.00;8.33;18.40;99.90;;;;;;4974569;28;9353;-58
2022/10/06 12:52:30;;;;;;;;;9.00;9.00;18.50;99.90;;;;;;4988927;28;9109;-58
2022/10/06 12:55:21;;;;;;;;;7.67;7.67;18.60;99.90;;;;;;4971891;28;9473;-59
2022/10/06 12:57:53;;;;;;;;;9.00;9.00;18.80;99.90;;;;;;4976459;28;9092;-58
2022/10/06 13:00:41;;;;;;;;;8.00;8.00;18.90;99.90;;;;;;4973787;28;9037;-57
2022/10/06 13:03:46;;;;;;;;;10.67;9.00;18.90;99.90;;;;;;4977964;28;9819;-59
2022/10/06 13:06:23;;;;;;;;;7.00;7.00;19.00;99.90;;;;;;4977576;28;9069;-59
2022/10/06 13:09:14;;;;;;;;;8.00;8.00;19.00;99.90;;;;;;4956345;28;9081;-58
2022/10/06 13:11:48;;;;;;;;;8.00;8.00;19.00;99.90;;;;;;4974778;28;9272;-57
2022/10/06 13:14:19;;;;;;;;;8.00;8.00;19.10;99.90;;;;;;4978038;28;9197;-60
2022/10/06 13:16:53;;;;;;;;;7.00;7.00;19.10;99.90;;;;;;4977711;28;9353;-58
2022/10/06 13:19:29;;;;;;;;;8.00;8.00;19.20;99.90;;;;;;4993653;28;9252;-58
2022/10/06 13:22:05;;;;;;;;;8.00;8.00;19.20;99.90;;;;;;4974372;28;9320;-57
2022/10/06 13:24:38;;;;;;;;;8.00;8.00;19.20;99.90;;;;;;4977616;28;9093;-63
2022/10/06 13:27:16;;;;;;;;;10.33;10.33;19.30;99.90;;;;;;4976155;28;9004;-56
2022/10/06 13:29:53;;;;;;;;;9.00;9.00;19.40;99.90;;;;;;4974293;28;10073;-59
2022/10/06 13:32:26;;;;;;;;;8.00;8.00;19.40;99.90;;;;;;5004134;28;9705;-59
2022/10/06 13:34:57;;;;;;;;;7.33;7.33;19.40;99.90;;;;;;4971627;28;9337;-58
2022/10/06 13:37:29;;;;;;;;;9.00;9.00;19.50;99.90;;;;;;4977016;28;9175;-61
2022/10/06 13:40:01;;;;;;;;;8.67;8.67;19.60;99.90;;;;;;4974089;28;9118;-57
2022/10/06 13:42:54;;;;;;;;;8.33;8.33;19.80;99.90;;;;;;4973587;28;9591;-58
2022/10/06 13:45:26;;;;;;;;;8.00;8.00;19.80;99.90;;;;;;4974549;28;9354;-63
2022/10/06 13:48:15;;;;;;;;;10.00;8.00;19.70;99.90;;;;;;4968734;28;9901;-59
2022/10/06 13:50:48;;;;;;;;;9.67;9.67;19.70;99.90;;;;;;4971602;28;9023;-58
2022/10/06 13:53:30;;;;;;;;;10.00;10.00;19.70;99.90;;;;;;4974473;28;9218;-58
2022/10/06 13:56:01;;;;;;;;;10.67;10.67;19.80;99.90;;;;;;4969235;28;9283;-58
2022/10/06 13:58:37;;;;;;;;;9.00;9.00;19.80;99.90;;;;;;4985499;28;9183;-59
2022/10/06 14:01:07;;;;;;;;;9.00;9.00;19.80;99.90;;;;;;4974687;28;9032;-57
2022/10/06 14:03:38;;;;;;;;;9.00;9.00;19.90;99.90;;;;;;4972935;28;9052;-58
2022/10/06 14:06:23;;;;;;;;;8.33;8.33;20.10;99.90;;;;;;4967489;28;9494;-58